createdAt,value
2018-08-12T00:01:25.634Z,79.44
2018-08-12T00:03:55.388Z,79.12
2018-08-12T00:06:25.094Z,79.00
2018-08-12T00:08:54.941Z,79.34
2018-08-12T00:11:24.651Z,78.89
2018-08-12T00:13:54.895Z,79.99
2018-08-12T00:16:24.801Z,79.86
2018-08-12T00:18:54.585Z,78.45
2018-08-12T00:21:24.410Z,78.13
2018-08-12T00:23:54.152Z,78.41
2018-08-12T00:26:23.946Z,78.22
2018-08-12T00:28:54.525Z,77.78
2018-08-12T00:31:24.326Z,77.93
2018-08-12T00:33:57.590Z,78.63
2018-08-12T00:36:27.256Z,78.03
2018-08-12T00:38:57.584Z,78.02
2018-08-12T00:41:28.404Z,77.71
2018-08-12T00:44:00.784Z,78.06
2018-08-12T00:46:33.150Z,78.31
2018-08-12T00:49:02.939Z,78.06
2018-08-12T00:51:32.808Z,78.37
2018-08-12T00:54:02.544Z,79.08
2018-08-12T00:56:32.479Z,79.40
2018-08-12T00:59:02.319Z,79.18
2018-08-12T01:01:32.162Z,78.68
2018-08-12T01:04:01.968Z,78.97
2018-08-12T01:06:31.685Z,79.11
2018-08-12T01:09:01.508Z,80.00
2018-08-12T01:11:31.275Z,79.58
2018-08-12T01:14:01.124Z,80.06
2018-08-12T01:16:30.894Z,79.82
2018-08-12T01:19:00.667Z,80.66
2018-08-12T01:21:30.487Z,81.07
2018-08-12T01:24:00.251Z,81.92
2018-08-12T01:26:30.127Z,82.79
2018-08-12T01:29:00.932Z,83.64
2018-08-12T01:31:31.179Z,83.64
2018-08-12T01:34:00.967Z,83.39
2018-08-12T01:36:31.268Z,84.44
2018-08-12T01:39:02.211Z,84.30
2018-08-12T01:41:32.631Z,84.67
2018-08-12T01:44:02.346Z,84.79
2018-08-12T01:46:32.119Z,84.79
2018-08-12T01:49:01.886Z,83.78
2018-08-12T01:51:31.606Z,84.19
2018-08-12T01:54:01.248Z,83.48
2018-08-12T01:56:31.082Z,83.08
2018-08-12T01:59:00.964Z,83.08
2018-08-12T02:01:30.801Z,82.61
2018-08-12T02:04:01.378Z,82.21
2018-08-12T02:06:31.192Z,83.42
2018-08-12T02:09:01.422Z,82.79
2018-08-12T02:11:31.231Z,82.89
2018-08-12T02:14:01.092Z,83.32
2018-08-12T02:16:36.241Z,83.17
2018-08-12T02:19:06.830Z,83.49
2018-08-12T02:21:37.558Z,83.32
2018-08-12T02:24:07.886Z,83.63
2018-08-12T02:26:38.787Z,84.44
2018-08-12T02:29:08.690Z,84.05
2018-08-12T02:31:38.525Z,84.59
2018-08-12T02:34:08.334Z,85.42
2018-08-12T02:36:38.029Z,86.98
2018-08-12T02:39:11.753Z,87.81
2018-08-12T02:41:41.514Z,88.60
2018-08-12T02:44:11.304Z,87.99
2018-08-12T02:46:41.003Z,89.04
2018-08-12T02:49:10.780Z,89.10
2018-08-12T02:51:41.313Z,89.39
2018-08-12T02:54:11.613Z,89.95
2018-08-12T02:56:41.302Z,89.26
2018-08-12T02:59:11.442Z,89.53
2018-08-12T03:01:41.404Z,89.49
2018-08-12T03:04:12.448Z,89.83
2018-08-12T03:06:42.127Z,89.73
2018-08-12T03:09:13.149Z,90.37
2018-08-12T03:11:43.907Z,90.06
2018-08-12T03:14:13.752Z,89.98
2018-08-12T03:16:44.322Z,91.10
2018-08-12T03:19:14.025Z,90.13
2018-08-12T03:21:43.757Z,90.72
2018-08-12T03:24:13.579Z,90.20
2018-08-12T03:26:45.137Z,90.39
2018-08-12T03:29:14.816Z,90.06
2018-08-12T03:31:47.947Z,89.33
2018-08-12T03:34:17.936Z,87.63
2018-08-12T03:36:47.716Z,83.42
2018-08-12T03:39:17.534Z,81.27
2018-08-12T03:41:47.334Z,78.56
2018-08-12T03:44:17.062Z,76.55
2018-08-12T03:46:46.751Z,74.08
2018-08-12T03:49:16.870Z,73.07
2018-08-12T03:51:47.572Z,71.38
2018-08-12T03:54:17.376Z,68.55
2018-08-12T03:56:47.456Z,67.15
2018-08-12T03:59:17.398Z,64.98
2018-08-12T04:01:47.154Z,63.90
2018-08-12T04:04:17.539Z,64.50
2018-08-12T04:06:47.975Z,61.47
2018-08-12T04:09:20.855Z,62.06
2018-08-12T04:11:51.030Z,61.05
2018-08-12T04:14:21.080Z,59.52
2018-08-12T04:16:59.233Z,57.75
2018-08-12T04:19:31.565Z,56.95
2018-08-12T04:22:02.285Z,52.49
2018-08-12T04:24:32.260Z,49.90
2018-08-12T04:27:02.051Z,48.31
2018-08-12T04:29:31.744Z,50.03
2018-08-12T04:32:03.698Z,48.95
2018-08-12T04:34:34.613Z,50.13
2018-08-12T04:37:13.955Z,47.56
2018-08-12T04:39:44.998Z,48.42
2018-08-12T04:42:15.749Z,48.10
2018-08-12T04:44:45.569Z,46.68
2018-08-12T04:47:15.279Z,47.40
2018-08-12T04:49:44.920Z,45.33
2018-08-12T04:52:15.109Z,44.08
2018-08-12T04:54:45.678Z,46.07
2018-08-12T04:57:17.212Z,46.92
2018-08-12T04:59:46.974Z,47.03
2018-08-12T05:02:16.763Z,47.36
2018-08-12T05:04:46.597Z,46.25
2018-08-12T05:07:17.498Z,45.61
2018-08-12T05:09:47.280Z,43.83
2018-08-12T05:12:18.409Z,43.81
2018-08-12T05:14:48.097Z,43.80
2018-08-12T05:17:17.783Z,45.19
2018-08-12T05:19:47.585Z,43.15
2018-08-12T05:22:18.621Z,42.80
2018-08-12T05:24:48.608Z,43.14
2018-08-12T05:27:18.735Z,44.10
2018-08-12T05:29:49.350Z,42.31
2018-08-12T05:32:20.481Z,42.10
2018-08-12T05:34:51.656Z,42.98
2018-08-12T05:37:22.607Z,43.47
2018-08-12T05:39:52.417Z,42.42
2018-08-12T05:42:24.182Z,39.87
2018-08-12T05:44:58.906Z,41.00
2018-08-12T05:47:30.426Z,41.83
2018-08-12T05:50:00.274Z,39.95
2018-08-12T05:52:33.677Z,38.52
2018-08-12T05:55:03.709Z,42.03
2018-08-12T05:57:37.395Z,41.76
2018-08-12T06:00:10.141Z,40.22
2018-08-12T06:02:39.932Z,39.10
2018-08-12T06:05:10.114Z,39.91
2018-08-12T06:07:40.101Z,38.64
2018-08-12T06:10:12.109Z,39.57
2018-08-12T06:12:41.978Z,37.69
2018-08-12T06:15:14.658Z,38.34
2018-08-12T06:17:45.480Z,37.64
2018-08-12T06:20:15.864Z,34.75
2018-08-12T06:22:45.647Z,33.73
2018-08-12T06:25:15.524Z,34.98
2018-08-12T06:27:45.690Z,32.29
2018-08-12T06:30:16.129Z,35.40
2018-08-12T06:32:47.409Z,34.80
2018-08-12T06:35:17.723Z,34.11
2018-08-12T06:37:48.024Z,35.26
2018-08-12T06:40:17.814Z,33.85
2018-08-12T06:42:49.722Z,30.75
2018-08-12T06:45:19.889Z,30.71
2018-08-12T06:47:50.210Z,30.80
2018-08-12T06:50:20.157Z,31.00
2018-08-12T06:52:50.127Z,31.02
2018-08-12T06:55:19.904Z,32.03
2018-08-12T06:57:49.651Z,31.75
2018-08-12T07:00:20.568Z,32.12
2018-08-12T07:02:50.518Z,30.86
2018-08-12T07:05:20.392Z,29.33
2018-08-12T07:07:50.285Z,30.13
2018-08-12T07:10:20.280Z,28.67
2018-08-12T07:12:50.216Z,31.42
2018-08-12T07:15:20.317Z,30.91
2018-08-12T07:17:50.072Z,29.07
2018-08-12T07:20:20.798Z,30.29
2018-08-12T07:22:50.503Z,29.67
2018-08-12T07:25:21.405Z,29.72
2018-08-12T07:27:51.201Z,28.89
2018-08-12T07:30:21.494Z,29.27
2018-08-12T07:32:51.259Z,30.67
2018-08-12T07:35:21.100Z,30.52
2018-08-12T07:37:51.483Z,28.41
2018-08-12T07:40:22.569Z,30.56
2018-08-12T07:42:56.219Z,31.64
2018-08-12T07:45:26.066Z,34.97
2018-08-12T07:47:59.079Z,36.62
2018-08-12T07:50:31.094Z,38.52
2018-08-12T07:53:00.933Z,40.19
2018-08-12T07:55:30.999Z,40.73
2018-08-12T07:58:02.421Z,41.77
2018-08-12T08:00:32.208Z,44.05
2018-08-12T08:03:02.075Z,43.25
2018-08-12T08:05:31.934Z,45.28
2018-08-12T08:08:01.713Z,45.67
2018-08-12T08:10:31.569Z,45.36
2018-08-12T08:13:02.637Z,44.23
2018-08-12T08:15:33.981Z,44.01
2018-08-12T08:18:04.124Z,44.67
2018-08-12T08:20:33.908Z,43.28
2018-08-12T08:23:03.973Z,44.05
2018-08-12T08:25:33.873Z,43.92
2018-08-12T08:28:04.828Z,43.83
2018-08-12T08:30:34.641Z,44.42
2018-08-12T08:33:04.631Z,44.67
2018-08-12T08:35:34.488Z,44.75
2018-08-12T08:38:04.436Z,44.26
2018-08-12T08:40:34.479Z,44.45
2018-08-12T08:43:04.272Z,44.75
2018-08-12T08:45:34.146Z,44.01
2018-08-12T08:48:04.016Z,45.22
2018-08-12T08:50:33.958Z,46.10
2018-08-12T08:53:04.120Z,45.41
2018-08-12T08:55:33.913Z,45.89
2018-08-12T08:58:04.400Z,45.48
2018-08-12T09:00:34.981Z,44.89
2018-08-12T09:03:05.496Z,44.25
2018-08-12T09:05:36.885Z,45.55
2018-08-12T09:08:06.906Z,45.40
2018-08-12T09:10:36.809Z,44.59
2018-08-12T09:13:07.941Z,45.85
2018-08-12T09:15:39.063Z,42.61
2018-08-12T09:18:09.863Z,43.20
2018-08-12T09:20:40.096Z,42.57
2018-08-12T09:23:10.508Z,43.38
2018-08-12T09:25:41.686Z,43.88
2018-08-12T09:28:11.655Z,43.85
2018-08-12T09:30:43.105Z,43.43
2018-08-12T09:33:12.895Z,42.25
2018-08-12T09:35:43.872Z,43.94
2018-08-12T09:38:13.799Z,42.89
2018-08-12T09:40:44.516Z,42.70
2018-08-12T09:43:14.356Z,43.48
2018-08-12T09:45:44.295Z,42.20
2018-08-12T09:48:14.767Z,41.89
2018-08-12T09:50:44.764Z,43.03
2018-08-12T09:53:14.857Z,42.92
2018-08-12T09:55:44.610Z,42.32
2018-08-12T09:58:14.677Z,45.21
2018-08-12T10:00:44.526Z,44.28
2018-08-12T10:03:15.016Z,42.26
2018-08-12T10:05:45.802Z,41.88
2018-08-12T10:08:15.840Z,40.97
2018-08-12T10:10:45.701Z,43.45
2018-08-12T10:13:15.591Z,41.83
2018-08-12T10:15:45.487Z,44.10
2018-08-12T10:18:15.451Z,43.76
2018-08-12T10:20:45.504Z,44.01
2018-08-12T10:23:16.144Z,42.90
2018-08-12T10:25:46.791Z,40.75
2018-08-12T10:28:17.573Z,43.74
2018-08-12T10:30:47.439Z,43.05
2018-08-12T10:33:17.567Z,48.71
2018-08-12T10:35:48.196Z,55.81
2018-08-12T10:38:18.031Z,57.57
2018-08-12T10:40:47.862Z,60.51
2018-08-12T10:45:53.190Z,61.09
2018-08-12T10:48:23.050Z,62.82
2018-08-12T10:50:53.026Z,59.92
2018-08-12T10:53:22.902Z,61.13
2018-08-12T10:55:52.851Z,60.17
2018-08-12T10:58:22.935Z,61.04
2018-08-12T11:00:53.834Z,61.95
2018-08-12T11:03:24.193Z,63.36
2018-08-12T11:05:54.210Z,62.31
2018-08-12T11:08:24.110Z,61.77
2018-08-12T11:10:54.065Z,62.98
2018-08-12T11:13:25.425Z,64.20
2018-08-12T11:15:55.200Z,62.10
2018-08-12T11:18:26.188Z,60.50
2018-08-12T11:20:56.813Z,60.56
2018-08-12T11:23:26.693Z,60.87
2018-08-12T11:25:56.455Z,60.87
2018-08-12T11:28:27.127Z,62.62
2018-08-12T11:30:57.549Z,60.99
2018-08-12T11:33:28.440Z,62.12
2018-08-12T11:35:59.078Z,60.58
2018-08-12T11:38:28.842Z,62.95
2018-08-12T11:40:58.562Z,62.58
2018-08-12T11:43:28.882Z,62.13
2018-08-12T11:45:59.212Z,61.70
2018-08-12T11:48:28.976Z,59.79
2018-08-12T11:50:58.993Z,59.77
2018-08-12T11:53:28.852Z,59.21
2018-08-12T11:55:59.777Z,59.37
2018-08-12T11:58:29.787Z,58.49
2018-08-12T12:00:59.840Z,60.44
2018-08-12T12:03:29.701Z,59.44
2018-08-12T12:05:59.616Z,60.87
2018-08-12T12:08:29.553Z,62.21
2018-08-12T12:10:59.813Z,61.06
2018-08-12T12:13:30.001Z,60.39
2018-08-12T12:16:00.708Z,59.31
2018-08-12T12:18:31.502Z,59.26
2018-08-12T12:21:01.427Z,58.01
2018-08-12T12:23:31.433Z,58.42
2018-08-12T12:26:01.351Z,56.75
2018-08-12T12:28:31.171Z,56.33
2018-08-12T12:31:01.966Z,54.95
2018-08-12T12:33:31.936Z,53.81
2018-08-12T12:36:01.886Z,52.61
2018-08-12T12:38:32.534Z,51.23
2018-08-12T12:41:03.836Z,50.35
2018-08-12T12:43:34.746Z,48.76
2018-08-12T12:46:04.984Z,48.92
2018-08-12T12:48:34.785Z,46.70
2018-08-12T12:51:04.555Z,48.16
2018-08-12T12:53:34.480Z,47.60
2018-08-12T12:56:04.301Z,49.75
2018-08-12T12:58:36.766Z,50.87
2018-08-12T13:01:06.619Z,50.16
2018-08-12T13:03:36.360Z,51.25
2018-08-12T13:06:07.029Z,50.83
2018-08-12T13:08:40.059Z,50.11
2018-08-12T13:11:09.847Z,50.43
2018-08-12T13:13:39.665Z,52.02
2018-08-12T13:16:09.504Z,50.19
2018-08-12T13:18:39.280Z,50.48
2018-08-12T13:21:09.562Z,52.39
2018-08-12T13:23:40.270Z,52.47
2018-08-12T13:26:10.154Z,54.22
2018-08-12T13:28:41.124Z,54.73
2018-08-12T13:31:11.132Z,53.12
2018-08-12T13:33:40.952Z,54.20
2018-08-12T13:36:10.827Z,54.04
2018-08-12T13:38:40.566Z,55.02
2018-08-12T13:41:10.428Z,55.30
2018-08-12T13:43:40.238Z,53.29
2018-08-12T13:46:09.984Z,53.76
2018-08-12T13:48:39.869Z,53.92
2018-08-12T13:51:09.706Z,54.46
2018-08-12T13:53:40.648Z,54.93
2018-08-12T13:56:10.526Z,57.78
2018-08-12T13:58:41.353Z,56.28
2018-08-12T14:01:13.138Z,55.61
2018-08-12T14:03:43.062Z,56.42
2018-08-12T14:06:12.815Z,57.51
2018-08-12T14:08:42.863Z,59.36
2018-08-12T14:11:12.977Z,59.39
2018-08-12T14:13:44.991Z,59.07
2018-08-12T14:16:16.341Z,58.74
2018-08-12T14:18:47.314Z,57.31
2018-08-12T14:21:17.213Z,58.10
2018-08-12T14:23:47.098Z,58.60
2018-08-12T14:26:16.948Z,57.35
2018-08-12T14:28:46.746Z,58.31
2018-08-12T14:31:17.413Z,57.17
2018-08-12T14:33:47.137Z,57.40
2018-08-12T14:36:17.037Z,58.90
2018-08-12T14:38:46.903Z,60.57
2018-08-12T14:41:16.605Z,61.05
2018-08-12T14:43:48.300Z,61.96
2018-08-12T14:46:18.416Z,61.53
2018-08-12T14:48:51.815Z,60.64
2018-08-12T14:51:21.633Z,60.48
2018-08-12T14:53:51.568Z,60.71
2018-08-12T14:56:21.675Z,60.44
2018-08-12T14:58:51.408Z,61.42
2018-08-12T15:01:22.122Z,61.95
2018-08-12T15:03:53.782Z,62.42
2018-08-12T15:06:23.718Z,61.67
2018-08-12T15:08:53.632Z,59.85
2018-08-12T15:11:23.413Z,59.38
2018-08-12T15:13:53.344Z,61.41
2018-08-12T15:16:26.173Z,61.94
2018-08-12T15:18:58.132Z,62.51
2018-08-12T15:21:28.959Z,62.10
2018-08-12T15:23:59.748Z,62.16
2018-08-12T15:26:29.961Z,62.11
2018-08-12T15:28:59.952Z,62.57
2018-08-12T15:31:29.736Z,62.85
2018-08-12T15:34:17.368Z,63.97
2018-08-12T15:36:47.178Z,65.17
2018-08-12T15:39:16.910Z,64.05
2018-08-12T15:41:46.760Z,64.08
2018-08-12T15:44:18.463Z,63.83
2018-08-12T15:46:48.186Z,64.66
2018-08-12T15:49:18.034Z,63.47
2018-08-12T15:51:47.944Z,62.69
2018-08-12T15:54:17.826Z,62.21
2018-08-12T15:56:47.686Z,64.00
2018-08-12T15:59:17.660Z,66.11
2018-08-12T16:01:47.441Z,65.87
2018-08-12T16:04:17.295Z,64.78
2018-08-12T16:06:47.136Z,65.59
2018-08-12T16:09:16.884Z,65.34
2018-08-12T16:11:46.650Z,65.72
2018-08-12T16:14:16.363Z,65.38
2018-08-12T16:16:49.349Z,65.07
2018-08-12T16:19:20.457Z,64.73
2018-08-12T16:21:50.283Z,63.54
2018-08-12T16:24:21.618Z,64.61
2018-08-12T16:26:52.222Z,64.49
2018-08-12T16:29:22.055Z,63.15
2018-08-12T16:31:56.120Z,63.51
2018-08-12T16:34:27.795Z,64.03
2018-08-12T16:36:57.581Z,64.16
2018-08-12T16:39:28.603Z,63.53
2018-08-12T16:41:59.159Z,63.54
2018-08-12T16:44:32.179Z,63.74
2018-08-12T16:47:01.975Z,64.92
2018-08-12T16:49:32.843Z,64.95
2018-08-12T16:52:02.628Z,64.22
2018-08-12T16:54:32.427Z,64.13
2018-08-12T16:57:03.254Z,64.50
2018-08-12T16:59:33.308Z,65.36
2018-08-12T17:02:04.438Z,65.52
2018-08-12T17:04:34.382Z,65.20
2018-08-12T17:07:04.170Z,65.36
2018-08-12T17:09:34.092Z,66.44
2018-08-12T17:12:04.696Z,66.09
2018-08-12T17:14:34.531Z,66.11
2018-08-12T17:17:04.235Z,66.37
2018-08-12T17:19:34.073Z,65.62
2018-08-12T17:22:04.575Z,66.27
2018-08-12T17:24:34.571Z,66.69
2018-08-12T17:27:04.492Z,66.75
2018-08-12T17:29:35.285Z,66.40
2018-08-12T17:32:05.272Z,67.43
2018-08-12T17:34:35.024Z,67.18
2018-08-12T17:37:05.252Z,67.18
2018-08-12T17:39:35.127Z,68.13
2018-08-12T17:42:05.055Z,68.29
2018-08-12T17:44:34.901Z,67.97
2018-08-12T17:47:04.900Z,68.54
2018-08-12T17:49:35.125Z,68.99
2018-08-12T17:52:05.719Z,67.91
2018-08-12T17:54:42.750Z,68.19
2018-08-12T17:57:13.840Z,67.70
2018-08-12T17:59:46.112Z,68.24
2018-08-12T18:02:15.724Z,67.60
2018-08-12T18:04:45.565Z,68.01
2018-08-12T18:07:15.579Z,67.70
2018-08-12T18:09:46.920Z,67.44
2018-08-12T18:12:16.739Z,67.43
2018-08-12T18:14:47.782Z,68.06
2018-08-12T18:17:17.608Z,68.51
2018-08-12T18:22:31.908Z,68.42
2018-08-12T18:25:02.927Z,68.35
2018-08-12T18:27:32.872Z,68.60
2018-08-12T18:30:02.644Z,68.96
2018-08-12T18:32:32.535Z,69.36
2018-08-12T18:35:02.554Z,69.19
2018-08-12T18:37:32.667Z,69.28
2018-08-12T18:42:39.322Z,69.87
2018-08-12T18:45:09.922Z,69.63
2018-08-12T18:47:39.924Z,69.74
2018-08-12T18:50:11.868Z,69.56
2018-08-12T18:52:45.100Z,69.76
2018-08-12T18:55:15.371Z,69.15
2018-08-12T18:57:47.589Z,69.42
2018-08-12T19:00:19.164Z,68.72
2018-08-12T19:02:49.726Z,68.55
2018-08-12T19:05:19.811Z,67.85
2018-08-12T19:07:49.821Z,67.24
2018-08-12T19:10:20.350Z,66.89
2018-08-12T19:12:50.891Z,67.62
2018-08-12T19:15:20.841Z,68.34
2018-08-12T19:17:51.630Z,68.83
2018-08-12T19:20:22.689Z,69.17
2018-08-12T19:22:55.044Z,69.18
2018-08-12T19:25:29.588Z,70.51
2018-08-12T19:28:00.032Z,70.16
2018-08-12T19:30:29.970Z,71.25
2018-08-12T19:32:59.925Z,70.94
2018-08-12T19:35:29.725Z,70.77
2018-08-12T19:37:59.831Z,71.71
2018-08-12T19:40:29.651Z,71.15
2018-08-12T19:42:59.479Z,71.16
2018-08-12T19:45:32.509Z,72.20
2018-08-12T19:48:03.227Z,72.48
2018-08-12T19:50:33.285Z,74.28
2018-08-12T19:53:04.019Z,73.34
2018-08-12T19:55:34.027Z,73.74
2018-08-12T19:58:03.930Z,73.80
2018-08-12T20:00:34.644Z,73.24
2018-08-12T20:03:04.890Z,73.44
2018-08-12T20:05:34.875Z,72.83
2018-08-12T20:08:04.832Z,72.95
2018-08-12T20:10:38.798Z,72.84
2018-08-12T20:13:09.786Z,72.62
2018-08-12T20:15:39.798Z,72.79
2018-08-12T20:18:10.137Z,72.76
2018-08-12T20:20:40.519Z,72.78
2018-08-12T20:23:10.799Z,73.62
2018-08-12T20:25:41.968Z,73.92
2018-08-12T20:28:12.174Z,74.47
2018-08-12T20:30:43.606Z,74.47
2018-08-12T20:33:15.008Z,74.27
2018-08-12T20:35:50.029Z,74.82
2018-08-12T20:38:24.664Z,75.47
2018-08-12T20:40:58.737Z,76.03
2018-08-12T20:43:30.861Z,75.59
2018-08-12T20:46:00.918Z,75.34
2018-08-12T20:48:30.741Z,75.24
2018-08-12T20:51:00.559Z,75.33
2018-08-12T20:53:30.464Z,76.05
2018-08-12T20:56:01.330Z,75.39
2018-08-12T20:58:31.465Z,76.00
2018-08-12T21:01:01.847Z,76.35
2018-08-12T21:03:32.335Z,76.30
2018-08-12T21:06:07.316Z,75.45
2018-08-12T21:08:37.218Z,75.58
2018-08-12T21:11:07.669Z,76.38
2018-08-12T21:13:37.670Z,76.45
2018-08-12T21:16:07.599Z,76.46
2018-08-12T21:18:37.379Z,76.87
2018-08-12T21:21:07.341Z,76.92
2018-08-12T21:23:37.609Z,76.99
2018-08-12T21:26:09.224Z,76.72
2018-08-12T21:28:39.133Z,76.48
2018-08-12T21:31:08.865Z,76.73
2018-08-12T21:33:38.724Z,77.61
2018-08-12T21:36:09.166Z,77.54
2018-08-12T21:38:40.093Z,77.85
2018-08-12T21:41:09.881Z,78.07
2018-08-12T21:43:39.854Z,78.53
2018-08-12T21:46:10.189Z,78.46
2018-08-12T21:48:40.502Z,79.08
2018-08-12T21:51:10.253Z,78.92
2018-08-12T21:53:40.069Z,79.37
2018-08-12T21:56:10.048Z,80.20
2018-08-12T21:58:39.918Z,80.53
2018-08-12T22:01:11.753Z,80.33
2018-08-12T22:03:42.093Z,80.75
2018-08-12T22:06:14.458Z,80.40
2018-08-12T22:08:46.259Z,80.72
2018-08-12T22:11:18.234Z,80.48
2018-08-12T22:13:48.468Z,81.38
2018-08-12T22:16:18.797Z,82.08
2018-08-12T22:18:48.748Z,82.11
2018-08-12T22:21:18.546Z,82.18
2018-08-12T22:23:48.421Z,82.58
2018-08-12T22:26:18.656Z,82.72
2018-08-12T22:29:07.632Z,81.96
2018-08-12T22:31:37.375Z,82.37
2018-08-12T22:34:07.247Z,82.35
2018-08-12T22:36:37.226Z,82.08
2018-08-12T22:39:10.155Z,82.52
2018-08-12T22:41:40.271Z,82.80
2018-08-12T22:44:10.271Z,83.27
2018-08-12T22:46:40.736Z,82.99
2018-08-12T22:49:10.540Z,83.76
2018-08-12T22:51:40.260Z,83.91
2018-08-12T22:54:13.070Z,84.22
2018-08-12T22:56:42.894Z,84.11
2018-08-12T22:59:16.336Z,84.60
2018-08-12T23:01:54.395Z,84.47
2018-08-12T23:04:24.179Z,84.87
2018-08-12T23:06:53.960Z,85.30
2018-08-12T23:09:23.758Z,86.28
2018-08-12T23:11:53.537Z,86.60
2018-08-12T23:14:23.290Z,87.08
2018-08-12T23:17:00.909Z,87.31
2018-08-12T23:19:31.178Z,88.19
2018-08-12T23:22:04.659Z,88.90
2018-08-12T23:24:39.053Z,88.08
2018-08-12T23:27:09.189Z,88.42
2018-08-12T23:29:39.698Z,88.64
2018-08-12T23:32:09.598Z,88.59
2018-08-12T23:34:39.389Z,88.70
2018-08-12T23:37:09.252Z,88.94
2018-08-12T23:39:39.344Z,88.62
2018-08-12T23:42:09.258Z,89.04
2018-08-12T23:44:39.169Z,89.18
2018-08-12T23:47:12.092Z,89.46
2018-08-12T23:49:42.074Z,89.19
2018-08-12T23:52:11.852Z,89.12
2018-08-12T23:54:41.618Z,89.38
2018-08-12T23:57:11.819Z,89.02
2018-08-12T23:59:41.646Z,88.75
